createdAt,value
2023-08-05T00:00:27.847Z,6.70
2023-08-05T00:03:30.153Z,6.97
2023-08-05T00:06:32.992Z,5.90
2023-08-05T00:09:36.092Z,5.10
2023-08-05T00:12:39.466Z,3.80
2023-08-05T00:15:41.841Z,5.15
2023-08-05T00:18:44.119Z,5.30
2023-08-05T00:21:46.405Z,4.23
2023-08-05T00:24:48.941Z,4.72
2023-08-05T00:27:51.232Z,5.20
2023-08-05T00:30:53.765Z,5.47
2023-08-05T00:33:56.076Z,6.00
2023-08-05T00:36:58.300Z,6.07
2023-08-05T00:40:01.714Z,5.97
2023-08-05T00:43:04.530Z,8.07
2023-08-05T00:46:07.075Z,11.50
2023-08-05T00:49:09.749Z,10.40
2023-08-05T00:52:13.202Z,11.50
2023-08-05T00:55:15.929Z,11.60
2023-08-05T00:58:18.328Z,10.60
2023-08-05T01:01:20.775Z,10.20
2023-08-05T01:04:23.302Z,10.57
2023-08-05T01:07:25.985Z,10.13
2023-08-05T01:10:29.036Z,10.40
2023-08-05T01:13:32.150Z,10.10
2023-08-05T01:16:34.515Z,8.48
2023-08-05T01:19:37.744Z,7.50
2023-08-05T01:22:44.686Z,6.77
2023-08-05T01:25:47.443Z,6.32
2023-08-05T01:28:50.900Z,5.88
2023-08-05T01:31:54.536Z,5.70
2023-08-05T01:34:58.240Z,5.90
2023-08-05T01:38:01.181Z,6.30
2023-08-05T01:41:04.595Z,5.93
2023-08-05T01:44:09.517Z,6.00
2023-08-05T01:47:12.726Z,6.57
2023-08-05T01:50:15.278Z,6.33
2023-08-05T01:53:17.565Z,7.00
2023-08-05T01:56:19.840Z,6.88
2023-08-05T01:59:22.057Z,6.97
2023-08-05T02:02:24.703Z,6.40
2023-08-05T02:05:27.120Z,7.77
2023-08-05T02:08:29.491Z,9.40
2023-08-05T02:11:32.144Z,8.93
2023-08-05T02:14:34.642Z,9.73
2023-08-05T02:17:36.950Z,8.70
2023-08-05T02:20:39.756Z,8.60
2023-08-05T02:23:42.070Z,9.50
2023-08-05T02:26:44.459Z,8.75
2023-08-05T02:29:46.708Z,8.75
2023-08-05T02:32:49.205Z,8.65
2023-08-05T02:35:58.510Z,8.67
2023-08-05T02:39:01.676Z,7.93
2023-08-05T02:42:05.195Z,8.20
2023-08-05T02:45:08.999Z,8.32
2023-08-05T02:48:12.458Z,8.32
2023-08-05T02:51:15.601Z,8.20
2023-08-05T02:54:18.455Z,7.97
2023-08-05T02:57:20.784Z,8.48
2023-08-05T03:00:23.263Z,8.52
2023-08-05T03:03:25.590Z,8.82
2023-08-05T03:06:27.937Z,8.67
2023-08-05T03:09:30.240Z,9.63
2023-08-05T03:12:32.697Z,9.65
2023-08-05T03:15:35.779Z,9.80
2023-08-05T03:18:46.498Z,9.75
2023-08-05T03:21:48.983Z,9.97
2023-08-05T03:24:51.372Z,9.63
2023-08-05T03:27:53.971Z,10.77
2023-08-05T03:30:58.041Z,10.95
2023-08-05T03:34:03.375Z,10.60
2023-08-05T03:37:08.260Z,9.97
2023-08-05T03:40:11.001Z,9.70
2023-08-05T03:43:13.299Z,9.73
2023-08-05T03:46:15.654Z,9.73
2023-08-05T03:49:18.144Z,11.40
2023-08-05T03:52:21.072Z,11.80
2023-08-05T03:55:23.375Z,11.00
2023-08-05T03:58:27.451Z,11.63
2023-08-05T04:01:31.757Z,10.48
2023-08-05T04:04:34.216Z,9.63
2023-08-05T04:07:36.979Z,8.97
2023-08-05T04:10:42.052Z,10.60
2023-08-05T04:13:46.305Z,10.50
2023-08-05T04:16:53.150Z,10.35
2023-08-05T04:19:55.489Z,11.57
2023-08-05T04:22:57.770Z,11.33
2023-08-05T04:26:01.235Z,11.53
2023-08-05T04:29:04.326Z,11.20
2023-08-05T04:32:06.941Z,12.63
2023-08-05T04:35:09.619Z,12.00
2023-08-05T04:38:11.921Z,11.30
2023-08-05T04:41:14.244Z,11.67
2023-08-05T04:44:16.629Z,11.60
2023-08-05T04:47:19.017Z,10.65
2023-08-05T04:50:21.380Z,10.95
2023-08-05T04:53:23.588Z,10.90
2023-08-05T04:56:26.437Z,9.63
2023-08-05T04:59:28.640Z,9.52
2023-08-05T05:02:30.986Z,9.63
2023-08-05T05:05:34.852Z,8.63
2023-08-05T05:08:37.068Z,7.87
2023-08-05T05:11:39.469Z,7.03
2023-08-05T05:14:47.989Z,7.63
2023-08-05T05:17:51.865Z,7.38
2023-08-05T05:20:55.974Z,7.40
2023-08-05T05:23:58.390Z,7.10
2023-08-05T05:27:00.624Z,6.53
2023-08-05T05:30:03.660Z,7.03
2023-08-05T05:33:05.991Z,6.68
2023-08-05T05:36:08.460Z,6.72
2023-08-05T05:39:10.706Z,7.10
2023-08-05T05:42:13.149Z,6.90
2023-08-05T05:45:15.450Z,5.97
2023-08-05T05:48:19.197Z,6.88
2023-08-05T05:51:21.427Z,6.50
2023-08-05T05:54:23.871Z,6.70
2023-08-05T05:57:26.122Z,6.70
2023-08-05T06:00:28.638Z,6.60
2023-08-05T06:03:34.194Z,5.90
2023-08-05T06:06:37.422Z,6.53
2023-08-05T06:09:40.413Z,5.80
2023-08-05T06:12:43.883Z,5.07
2023-08-05T06:15:46.178Z,3.85
2023-08-05T06:18:48.526Z,3.15
2023-08-05T06:21:50.993Z,3.00
2023-08-05T06:24:53.476Z,2.77
2023-08-05T06:27:55.959Z,2.97
2023-08-05T06:30:58.467Z,2.70
2023-08-05T06:34:00.777Z,2.83
2023-08-05T06:37:03.003Z,2.30
2023-08-05T06:40:05.844Z,2.50
2023-08-05T06:43:08.167Z,2.70
2023-08-05T06:46:10.383Z,2.50
2023-08-05T06:49:12.846Z,2.65
2023-08-05T06:52:15.614Z,2.60
2023-08-05T06:55:21.222Z,2.30
2023-08-05T06:58:23.548Z,2.83
2023-08-05T07:01:25.857Z,2.80
2023-08-05T07:04:29.710Z,2.25
2023-08-05T07:07:32.713Z,2.80
2023-08-05T07:10:34.970Z,2.80
2023-08-05T07:13:37.215Z,2.53
2023-08-05T07:16:39.419Z,2.80
2023-08-05T07:19:41.704Z,2.95
2023-08-05T07:22:43.961Z,2.80
2023-08-05T07:25:46.236Z,2.63
2023-08-05T07:28:50.075Z,2.77
2023-08-05T07:31:52.541Z,3.05
2023-08-05T07:34:55.728Z,3.13
2023-08-05T07:37:58.020Z,2.70
2023-08-05T07:41:00.799Z,2.83
2023-08-05T07:44:04.696Z,2.87
2023-08-05T07:47:08.771Z,2.90
2023-08-05T07:50:11.697Z,2.65
2023-08-05T07:53:14.918Z,2.65
2023-08-05T07:56:17.604Z,2.90
2023-08-05T07:59:21.401Z,3.10
2023-08-05T08:02:24.395Z,3.13
2023-08-05T08:05:27.681Z,3.25
2023-08-05T08:08:29.889Z,3.05
2023-08-05T08:11:32.147Z,3.43
2023-08-05T08:14:34.562Z,2.93
2023-08-05T08:17:39.200Z,3.17
2023-08-05T08:20:52.387Z,2.97
2023-08-05T08:23:54.650Z,3.08
2023-08-05T08:26:56.865Z,3.50
2023-08-05T08:29:59.053Z,3.43
2023-08-05T08:33:01.632Z,3.72
2023-08-05T08:36:05.378Z,3.90
2023-08-05T08:39:07.604Z,3.63
2023-08-05T08:42:09.950Z,3.90
2023-08-05T08:45:16.273Z,3.80
2023-08-05T08:48:19.361Z,4.15
2023-08-05T08:51:22.934Z,3.92
2023-08-05T08:54:27.944Z,4.10
2023-08-05T08:57:30.668Z,4.00
2023-08-05T09:00:35.886Z,3.80
2023-08-05T09:03:38.326Z,3.80
2023-08-05T09:06:40.991Z,3.80
2023-08-05T09:09:47.880Z,3.38
2023-08-05T09:12:50.172Z,3.60
2023-08-05T09:15:53.254Z,3.57
2023-08-05T09:18:59.341Z,3.10
2023-08-05T09:22:03.612Z,3.80
2023-08-05T09:25:08.513Z,4.13
2023-08-05T09:28:11.550Z,3.80
2023-08-05T09:31:14.506Z,3.77
2023-08-05T09:34:16.770Z,4.40
2023-08-05T09:37:20.413Z,3.67
2023-08-05T09:40:30.381Z,3.75
2023-08-05T09:43:35.601Z,4.07
2023-08-05T09:46:49.140Z,3.63
2023-08-05T09:49:53.553Z,3.88
2023-08-05T09:52:57.435Z,3.80
2023-08-05T09:56:00.266Z,3.65
2023-08-05T09:59:03.594Z,3.77
2023-08-05T10:02:07.339Z,3.77
2023-08-05T10:05:11.202Z,3.92
2023-08-05T10:08:14.854Z,3.60
2023-08-05T10:11:17.376Z,3.58
2023-08-05T10:14:20.512Z,3.80
2023-08-05T10:17:22.936Z,3.90
2023-08-05T10:20:25.357Z,3.78
2023-08-05T10:23:27.587Z,3.95
2023-08-05T10:26:48.300Z,3.90
2023-08-05T10:29:56.090Z,4.20
2023-08-05T10:32:59.714Z,4.27
2023-08-05T10:36:04.882Z,4.72
2023-08-05T10:39:40.726Z,4.20
2023-08-05T10:42:43.219Z,4.15
2023-08-05T10:45:45.505Z,4.73
2023-08-05T10:48:51.036Z,4.40
2023-08-05T10:51:53.668Z,4.18
2023-08-05T10:54:56.350Z,3.92
2023-08-05T10:57:59.774Z,3.67
2023-08-05T11:01:06.760Z,4.10
2023-08-05T11:04:27.772Z,3.80
2023-08-05T11:07:31.918Z,4.05
2023-08-05T11:10:35.257Z,4.10
2023-08-05T11:13:39.341Z,4.50
2023-08-05T11:16:46.083Z,4.33
2023-08-05T11:19:52.434Z,4.50
2023-08-05T11:22:54.692Z,4.68
2023-08-05T11:26:00.606Z,4.70
2023-08-05T11:29:02.918Z,4.35
2023-08-05T11:32:05.222Z,4.77
2023-08-05T11:35:07.822Z,4.60
2023-08-05T11:38:10.423Z,4.60
2023-08-05T11:41:12.706Z,5.05
2023-08-05T11:44:18.435Z,4.70
2023-08-05T11:47:20.758Z,4.40
2023-08-05T11:50:34.832Z,4.73
2023-08-05T11:53:37.039Z,4.93
2023-08-05T11:56:39.282Z,5.13
2023-08-05T11:59:49.306Z,5.30
2023-08-05T12:02:53.077Z,5.77
2023-08-05T12:06:01.562Z,5.53
2023-08-05T12:09:06.169Z,6.10
2023-08-05T12:12:17.010Z,5.80
2023-08-05T12:15:29.350Z,6.00
2023-08-05T12:18:32.305Z,6.10
2023-08-05T12:24:41.905Z,6.57
2023-08-05T12:27:44.756Z,6.78
2023-08-05T12:30:47.008Z,6.85
2023-08-05T12:33:49.308Z,7.93
2023-08-05T12:36:51.499Z,7.57
2023-08-05T12:39:53.723Z,7.60
2023-08-05T12:42:56.220Z,8.48
2023-08-05T12:45:58.638Z,8.88
2023-08-05T12:49:00.978Z,8.20
2023-08-05T12:52:07.081Z,9.63
2023-08-05T12:55:09.794Z,9.77
2023-08-05T12:58:12.344Z,9.80
2023-08-05T13:01:14.677Z,9.63
2023-08-05T13:04:16.927Z,10.10
2023-08-05T13:07:19.574Z,10.70
2023-08-05T13:10:21.899Z,11.40
2023-08-05T13:13:25.826Z,11.40
2023-08-05T13:16:28.802Z,10.68
2023-08-05T13:19:31.163Z,10.53
2023-08-05T13:22:33.537Z,11.07
2023-08-05T13:25:35.785Z,11.18
2023-08-05T13:28:38.002Z,10.90
2023-08-05T13:31:40.343Z,11.52
2023-08-05T13:34:42.676Z,11.37
2023-08-05T13:37:44.989Z,11.53
2023-08-05T13:40:56.816Z,11.70
2023-08-05T13:43:59.284Z,11.50
2023-08-05T13:47:01.698Z,11.43
2023-08-05T13:50:05.049Z,11.60
2023-08-05T13:53:07.567Z,12.27
2023-08-05T13:56:09.840Z,12.38
2023-08-05T13:59:12.155Z,12.63
2023-08-05T14:02:14.412Z,12.38
2023-08-05T14:05:16.767Z,12.47
2023-08-05T14:08:19.653Z,12.17
2023-08-05T14:11:21.869Z,12.63
2023-08-05T14:14:26.709Z,12.70
2023-08-05T14:17:30.358Z,12.38
2023-08-05T14:20:32.745Z,12.77
2023-08-05T14:23:34.981Z,12.90
2023-08-05T14:26:37.234Z,12.40
2023-08-05T14:29:39.622Z,14.70
2023-08-05T14:32:41.859Z,14.48
2023-08-05T14:35:44.139Z,13.87
2023-08-05T14:38:46.393Z,13.67
2023-08-05T14:41:49.100Z,13.50
2023-08-05T14:44:51.712Z,12.82
2023-08-05T14:47:57.945Z,13.18
2023-08-05T14:51:03.897Z,12.27
2023-08-05T14:54:06.224Z,11.00
2023-08-05T14:57:08.446Z,11.27
2023-08-05T15:00:12.010Z,11.88
2023-08-05T15:03:15.615Z,11.30
2023-08-05T15:06:19.341Z,11.17
2023-08-05T15:09:21.679Z,10.40
2023-08-05T15:12:24.161Z,10.73
2023-08-05T15:15:26.391Z,9.18
2023-08-05T15:18:28.655Z,10.15
2023-08-05T15:21:31.714Z,9.70
2023-08-05T15:24:34.483Z,8.77
2023-08-05T15:27:36.790Z,8.35
2023-08-05T15:30:39.473Z,9.05
2023-08-05T15:33:41.723Z,8.50
2023-08-05T15:36:45.617Z,8.10
2023-08-05T15:39:48.147Z,7.63
2023-08-05T15:42:50.580Z,7.47
2023-08-05T15:45:57.209Z,7.60
2023-08-05T15:49:00.254Z,7.53
2023-08-05T15:52:03.017Z,7.80
2023-08-05T15:55:06.368Z,7.47
2023-08-05T15:58:08.841Z,7.57
2023-08-05T16:01:11.804Z,7.40
2023-08-05T16:04:14.873Z,8.13
2023-08-05T16:07:17.930Z,7.83
2023-08-05T16:10:21.341Z,7.87
2023-08-05T16:13:24.300Z,7.57
2023-08-05T16:16:27.109Z,8.32
2023-08-05T16:19:29.885Z,7.93
2023-08-05T16:22:32.735Z,8.03
2023-08-05T16:25:35.480Z,9.03
2023-08-05T16:28:38.347Z,9.70
2023-08-05T16:31:40.802Z,10.18
2023-08-05T16:34:43.762Z,10.75
2023-08-05T16:37:46.280Z,11.00
2023-08-05T16:40:49.008Z,11.43
2023-08-05T16:43:52.493Z,11.77
2023-08-05T16:46:56.733Z,12.00
2023-08-05T16:49:59.877Z,12.70
2023-08-05T16:53:02.396Z,13.77
2023-08-05T16:56:05.811Z,14.30
2023-08-05T16:59:10.693Z,13.95
2023-08-05T17:02:12.932Z,16.58
2023-08-05T17:05:16.315Z,22.58
2023-08-05T17:08:19.792Z,16.43
2023-08-05T17:11:23.236Z,17.73
2023-08-05T17:14:26.717Z,19.52
2023-08-05T17:17:29.670Z,20.40
2023-08-05T17:20:33.551Z,21.77
2023-08-05T17:23:37.177Z,23.33
2023-08-05T17:26:40.772Z,23.57
2023-08-05T17:29:46.430Z,23.38
2023-08-05T17:32:49.940Z,23.58
2023-08-05T17:35:56.509Z,23.38
2023-08-05T17:38:59.707Z,23.63
2023-08-05T17:42:01.960Z,22.07
2023-08-05T17:45:04.995Z,25.73
2023-08-05T17:48:08.748Z,26.50
2023-08-05T17:51:11.326Z,25.60
2023-08-05T17:54:14.358Z,26.80
2023-08-05T17:57:17.160Z,26.10
2023-08-05T18:00:20.117Z,31.17
2023-08-05T18:03:23.087Z,25.25
2023-08-05T18:06:25.865Z,25.13
2023-08-05T18:09:28.659Z,23.50
2023-08-05T18:12:32.131Z,25.47
2023-08-05T18:15:35.216Z,24.42
2023-08-05T18:18:38.125Z,27.95
2023-08-05T18:21:41.987Z,33.15
2023-08-05T18:24:45.147Z,28.30
2023-08-05T18:27:47.667Z,27.10
2023-08-05T18:30:50.164Z,25.45
2023-08-05T18:33:54.621Z,25.90
2023-08-05T18:36:57.609Z,25.55
2023-08-05T18:40:00.848Z,27.23
2023-08-05T18:43:03.892Z,27.30
2023-08-05T18:46:08.154Z,27.58
2023-08-05T18:49:10.820Z,28.42
2023-08-05T18:52:13.247Z,27.88
2023-08-05T18:55:15.871Z,26.80
2023-08-05T18:58:18.375Z,28.57
2023-08-05T19:01:21.132Z,27.88
2023-08-05T19:04:23.638Z,28.38
2023-08-05T19:07:26.447Z,28.83
2023-08-05T19:10:28.965Z,29.20
2023-08-05T19:13:31.411Z,26.97
2023-08-05T19:16:34.430Z,27.85
2023-08-05T19:19:38.406Z,27.42
2023-08-05T19:22:44.448Z,26.30
2023-08-05T19:25:47.471Z,26.33
2023-08-05T19:28:51.731Z,25.50
2023-08-05T19:31:55.189Z,25.85
2023-08-05T19:34:59.962Z,25.13
2023-08-05T19:38:04.454Z,24.13
2023-08-05T19:41:07.801Z,26.50
2023-08-05T19:44:10.753Z,26.37
2023-08-05T19:47:13.590Z,26.25
2023-08-05T19:50:16.377Z,26.45
2023-08-05T19:53:19.064Z,26.95
2023-08-05T19:56:21.723Z,26.63
2023-08-05T19:59:24.474Z,27.17
2023-08-05T20:02:26.889Z,27.88
2023-08-05T20:05:32.667Z,27.60
2023-08-05T20:08:35.690Z,26.38
2023-08-05T20:11:37.947Z,23.77
2023-08-05T20:14:41.069Z,23.67
2023-08-05T20:17:43.956Z,26.10
2023-08-05T20:20:47.036Z,24.33
2023-08-05T20:23:50.058Z,25.77
2023-08-05T20:26:52.715Z,24.20
2023-08-05T20:29:55.135Z,24.20
2023-08-05T20:32:57.797Z,23.85
2023-08-05T20:36:01.117Z,22.48
2023-08-05T20:39:04.693Z,21.25
2023-08-05T20:42:07.736Z,20.03
2023-08-05T20:45:10.516Z,18.90
2023-08-05T20:48:12.817Z,17.77
2023-08-05T20:51:18.825Z,17.08
2023-08-05T20:54:21.326Z,15.98
2023-08-05T20:57:23.849Z,15.33
2023-08-05T21:00:26.077Z,14.83
2023-08-05T21:03:28.412Z,13.38
2023-08-05T21:06:30.722Z,12.63
2023-08-05T21:09:33.017Z,13.93
2023-08-05T21:12:35.234Z,12.53
2023-08-05T21:15:42.952Z,12.60
2023-08-05T21:18:47.889Z,12.73
2023-08-05T21:21:50.673Z,11.90
2023-08-05T21:24:53.342Z,11.32
2023-08-05T21:27:55.598Z,12.00
2023-08-05T21:30:59.692Z,13.53
2023-08-05T21:34:02.004Z,11.93
2023-08-05T21:37:05.459Z,11.45
2023-08-05T21:40:09.183Z,11.00
2023-08-05T21:43:12.386Z,10.40
2023-08-05T21:46:14.826Z,10.77
2023-08-05T21:49:17.691Z,10.88
2023-08-05T21:52:20.792Z,10.52
2023-08-05T21:55:25.219Z,10.02
2023-08-05T21:58:28.314Z,10.37
2023-08-05T22:01:31.541Z,10.73
2023-08-05T22:04:34.924Z,9.63
2023-08-05T22:07:38.000Z,9.75
2023-08-05T22:10:41.193Z,10.00
2023-08-05T22:13:44.717Z,9.80
2023-08-05T22:16:47.797Z,9.27
2023-08-05T22:19:50.989Z,9.65
2023-08-05T22:22:53.626Z,8.75
2023-08-05T22:25:55.828Z,8.55
2023-08-05T22:28:58.058Z,8.97
2023-08-05T22:32:00.288Z,7.77
2023-08-05T22:35:03.167Z,7.75
2023-08-05T22:38:05.532Z,8.00
2023-08-05T22:41:07.901Z,7.97
2023-08-05T22:44:10.144Z,7.93
2023-08-05T22:47:12.468Z,8.17
2023-08-05T22:50:15.019Z,7.57
2023-08-05T22:53:17.965Z,7.82
2023-08-05T22:56:21.463Z,7.72
2023-08-05T22:59:24.558Z,7.77
2023-08-05T23:02:27.865Z,8.03
2023-08-05T23:05:31.047Z,8.18
2023-08-05T23:08:34.145Z,8.57
2023-08-05T23:11:37.239Z,8.77
2023-08-05T23:14:40.341Z,8.50
2023-08-05T23:17:44.175Z,9.73
2023-08-05T23:20:47.330Z,12.10
2023-08-05T23:23:50.421Z,13.07
2023-08-05T23:26:53.629Z,12.77
2023-08-05T23:29:56.730Z,13.50
2023-08-05T23:32:59.880Z,12.27
2023-08-05T23:36:02.913Z,12.95
2023-08-05T23:39:05.400Z,11.40
2023-08-05T23:42:07.666Z,11.98
2023-08-05T23:45:14.547Z,11.37
2023-08-05T23:48:18.046Z,11.23
2023-08-05T23:51:20.892Z,10.57
2023-08-05T23:54:26.214Z,11.48
2023-08-05T23:57:28.454Z,11.38
